createdAt,value
2023-09-10T00:00:59.705Z,15.97
2023-09-10T00:03:26.215Z,15.86
2023-09-10T00:05:52.834Z,15.87
2023-09-10T00:08:19.309Z,15.79
2023-09-10T00:10:45.784Z,15.77
2023-09-10T00:13:12.261Z,15.79
2023-09-10T00:15:42.769Z,15.77
2023-09-10T00:18:09.338Z,15.76
2023-09-10T00:20:35.909Z,15.77
2023-09-10T00:23:02.441Z,15.75
2023-09-10T00:25:29.800Z,15.54
2023-09-10T00:27:58.812Z,15.69
2023-09-10T00:30:45.341Z,15.61
2023-09-10T00:33:11.808Z,15.60
2023-09-10T00:35:38.268Z,15.63
2023-09-10T00:38:04.819Z,15.59
2023-09-10T00:40:31.862Z,15.47
2023-09-10T00:42:58.392Z,15.50
2023-09-10T00:45:24.804Z,15.35
2023-09-10T00:47:51.409Z,15.49
2023-09-10T00:50:18.696Z,15.54
2023-09-10T00:52:51.423Z,15.53
2023-09-10T00:55:19.590Z,15.35
2023-09-10T00:57:46.178Z,15.45
2023-09-10T01:00:22.993Z,15.42
2023-09-10T01:02:50.391Z,15.40
2023-09-10T01:05:18.452Z,15.35
2023-09-10T01:07:45.922Z,15.22
2023-09-10T01:10:12.962Z,15.30
2023-09-10T01:13:01.914Z,15.29
2023-09-10T01:15:37.770Z,15.10
2023-09-10T01:18:21.833Z,15.23
2023-09-10T01:21:07.515Z,15.26
2023-09-10T01:24:13.649Z,15.24
2023-09-10T01:26:41.077Z,15.15
2023-09-10T01:29:15.598Z,15.13
2023-09-10T01:31:45.642Z,15.20
2023-09-10T01:34:15.389Z,15.14
2023-09-10T01:36:50.868Z,15.19
2023-09-10T01:39:24.778Z,15.09
2023-09-10T01:41:52.353Z,15.18
2023-09-10T01:44:20.972Z,15.13
2023-09-10T01:46:48.274Z,15.08
2023-09-10T01:49:16.416Z,15.06
2023-09-10T01:51:42.860Z,15.05
2023-09-10T01:54:09.344Z,15.13
2023-09-10T01:56:35.825Z,15.13
2023-09-10T01:59:02.272Z,15.17
2023-09-10T02:01:28.884Z,15.21
2023-09-10T02:03:55.401Z,15.20
2023-09-10T02:06:21.896Z,15.15
2023-09-10T02:08:48.347Z,15.22
2023-09-10T02:11:14.870Z,15.12
2023-09-10T02:13:42.286Z,15.11
2023-09-10T02:16:09.921Z,15.18
2023-09-10T02:18:36.602Z,15.05
2023-09-10T02:21:10.484Z,15.12
2023-09-10T02:23:38.028Z,14.96
2023-09-10T02:26:04.549Z,14.94
2023-09-10T02:28:31.086Z,14.89
2023-09-10T02:30:57.530Z,14.90
2023-09-10T02:33:25.979Z,14.87
2023-09-10T02:35:52.579Z,14.90
2023-09-10T02:38:19.108Z,14.84
2023-09-10T02:40:45.731Z,14.71
2023-09-10T02:43:12.228Z,14.74
2023-09-10T02:45:38.730Z,14.78
2023-09-10T02:48:05.612Z,14.74
2023-09-10T02:50:32.058Z,14.74
2023-09-10T02:52:58.573Z,14.70
2023-09-10T02:55:25.059Z,14.61
2023-09-10T02:57:51.535Z,14.74
2023-09-10T03:00:20.852Z,14.73
2023-09-10T03:02:47.520Z,14.77
2023-09-10T03:05:14.305Z,14.66
2023-09-10T03:07:40.853Z,14.75
2023-09-10T03:10:07.879Z,14.63
2023-09-10T03:12:34.298Z,14.63
2023-09-10T03:15:00.740Z,14.59
2023-09-10T03:17:27.348Z,14.63
2023-09-10T03:19:53.798Z,14.55
2023-09-10T03:22:20.265Z,14.63
2023-09-10T03:24:46.708Z,14.61
2023-09-10T03:27:13.179Z,14.71
2023-09-10T03:29:39.921Z,14.73
2023-09-10T03:32:09.512Z,14.68
2023-09-10T03:34:36.273Z,14.57
2023-09-10T03:37:04.542Z,14.55
2023-09-10T03:39:31.134Z,14.56
2023-09-10T03:41:57.874Z,14.51
2023-09-10T03:44:24.640Z,14.32
2023-09-10T03:46:54.359Z,14.34
2023-09-10T03:49:20.940Z,14.32
2023-09-10T03:51:49.517Z,14.40
2023-09-10T03:54:16.108Z,14.26
2023-09-10T03:56:42.801Z,14.29
2023-09-10T03:59:11.514Z,14.29
2023-09-10T04:01:38.206Z,14.28
2023-09-10T04:04:05.070Z,14.31
2023-09-10T04:06:31.609Z,14.27
2023-09-10T04:08:58.088Z,14.33
2023-09-10T04:11:24.528Z,14.27
2023-09-10T04:13:51.058Z,14.29
2023-09-10T04:16:17.780Z,14.33
2023-09-10T04:18:47.259Z,14.17
2023-09-10T04:21:15.326Z,14.18
2023-09-10T04:23:41.814Z,14.20
2023-09-10T04:26:08.386Z,14.17
2023-09-10T04:28:35.232Z,14.15
2023-09-10T04:31:02.215Z,14.15
2023-09-10T04:33:28.726Z,14.09
2023-09-10T04:35:58.214Z,14.10
2023-09-10T04:38:25.433Z,14.05
2023-09-10T04:40:51.947Z,14.14
2023-09-10T04:43:18.436Z,14.12
2023-09-10T04:45:44.914Z,14.05
2023-09-10T04:48:13.761Z,13.98
2023-09-10T04:50:41.183Z,14.02
2023-09-10T04:53:07.697Z,13.93
2023-09-10T04:55:34.160Z,13.96
2023-09-10T04:58:00.636Z,14.03
2023-09-10T05:00:27.067Z,13.96
2023-09-10T05:02:53.699Z,14.01
2023-09-10T05:05:20.404Z,14.01
2023-09-10T05:07:50.908Z,14.08
2023-09-10T05:10:17.885Z,14.11
2023-09-10T05:12:44.505Z,14.04
2023-09-10T05:15:12.242Z,14.05
2023-09-10T05:17:40.081Z,14.19
2023-09-10T05:20:07.652Z,14.10
2023-09-10T05:22:34.378Z,14.08
2023-09-10T05:25:00.849Z,14.22
2023-09-10T05:27:28.279Z,14.23
2023-09-10T05:29:54.778Z,14.18
2023-09-10T05:32:21.511Z,14.09
2023-09-10T05:34:48.026Z,14.32
2023-09-10T05:37:14.497Z,14.46
2023-09-10T05:39:40.983Z,14.52
2023-09-10T05:42:07.448Z,14.48
2023-09-10T05:44:33.913Z,14.61
2023-09-10T05:47:00.355Z,14.70
2023-09-10T05:49:26.816Z,14.75
2023-09-10T05:51:53.256Z,14.90
2023-09-10T05:54:19.761Z,14.90
2023-09-10T05:56:46.256Z,15.04
2023-09-10T05:59:12.767Z,15.13
2023-09-10T06:01:39.276Z,15.17
2023-09-10T06:04:06.235Z,15.36
2023-09-10T06:06:32.760Z,15.51
2023-09-10T06:08:59.210Z,15.63
2023-09-10T06:11:25.956Z,15.75
2023-09-10T06:13:52.468Z,15.80
2023-09-10T06:16:20.005Z,15.99
2023-09-10T06:18:46.450Z,16.01
2023-09-10T06:21:12.861Z,16.04
2023-09-10T06:23:39.422Z,16.11
2023-09-10T06:26:06.037Z,16.19
2023-09-10T06:28:32.548Z,16.29
2023-09-10T06:30:59.094Z,16.35
2023-09-10T06:33:25.731Z,16.38
2023-09-10T06:35:52.301Z,16.46
2023-09-10T06:38:18.977Z,16.52
2023-09-10T06:40:53.229Z,16.63
2023-09-10T06:43:19.944Z,16.62
2023-09-10T06:45:46.525Z,16.76
2023-09-10T06:48:14.027Z,16.86
2023-09-10T06:50:47.110Z,16.88
2023-09-10T06:53:20.576Z,16.99
2023-09-10T06:55:47.199Z,17.17
2023-09-10T06:58:15.929Z,17.20
2023-09-10T07:00:42.366Z,17.36
2023-09-10T07:03:09.534Z,17.57
2023-09-10T07:05:38.997Z,17.75
2023-09-10T07:08:05.951Z,17.89
2023-09-10T07:10:32.429Z,17.85
2023-09-10T07:12:58.870Z,18.06
2023-09-10T07:15:25.319Z,18.26
2023-09-10T07:17:51.885Z,18.42
2023-09-10T07:20:19.372Z,18.50
2023-09-10T07:22:45.976Z,18.71
2023-09-10T07:25:12.457Z,18.67
2023-09-10T07:27:38.942Z,18.94
2023-09-10T07:30:06.015Z,19.01
2023-09-10T07:32:32.595Z,19.07
2023-09-10T07:35:00.221Z,19.18
2023-09-10T07:37:26.717Z,19.36
2023-09-10T07:39:53.333Z,19.51
2023-09-10T07:42:19.944Z,19.56
2023-09-10T07:44:47.235Z,19.18
2023-09-10T07:47:13.900Z,19.80
2023-09-10T07:49:41.035Z,20.00
2023-09-10T07:52:07.565Z,20.24
2023-09-10T07:54:37.091Z,20.17
2023-09-10T07:57:04.617Z,20.30
2023-09-10T07:59:31.105Z,20.56
2023-09-10T08:01:57.587Z,20.59
2023-09-10T08:04:24.935Z,20.74
2023-09-10T08:06:51.396Z,21.12
2023-09-10T08:09:17.827Z,21.05
2023-09-10T08:11:44.392Z,21.00
2023-09-10T08:14:11.137Z,21.25
2023-09-10T08:16:38.416Z,21.47
2023-09-10T08:19:06.018Z,21.57
2023-09-10T08:21:33.514Z,21.43
2023-09-10T08:23:59.957Z,21.65
2023-09-10T08:26:26.439Z,21.55
2023-09-10T08:28:53.004Z,21.70
2023-09-10T08:31:19.656Z,21.79
2023-09-10T08:33:46.965Z,22.03
2023-09-10T08:36:13.687Z,22.07
2023-09-10T08:38:41.270Z,21.85
2023-09-10T08:41:38.092Z,22.12
2023-09-10T08:44:06.158Z,22.15
2023-09-10T08:46:37.587Z,22.23
2023-09-10T08:49:05.108Z,22.37
2023-09-10T08:51:33.546Z,22.43
2023-09-10T08:54:04.119Z,22.53
2023-09-10T08:56:30.844Z,22.69
2023-09-10T08:58:58.449Z,22.76
2023-09-10T09:01:26.195Z,22.79
2023-09-10T09:03:53.190Z,23.19
2023-09-10T09:06:20.320Z,23.00
2023-09-10T09:08:51.326Z,23.31
2023-09-10T09:11:18.502Z,23.50
2023-09-10T09:13:53.539Z,23.23
2023-09-10T09:16:23.969Z,23.27
2023-09-10T09:18:52.252Z,23.52
2023-09-10T09:21:21.567Z,23.48
2023-09-10T09:23:55.095Z,23.76
2023-09-10T09:26:23.163Z,23.75
2023-09-10T09:28:50.197Z,23.86
2023-09-10T09:31:21.362Z,23.94
2023-09-10T09:33:48.379Z,23.88
2023-09-10T09:36:14.972Z,24.11
2023-09-10T09:38:49.643Z,24.17
2023-09-10T09:41:18.752Z,24.38
2023-09-10T09:43:45.941Z,24.32
2023-09-10T09:46:12.922Z,24.37
2023-09-10T09:48:40.477Z,24.67
2023-09-10T09:51:07.540Z,24.76
2023-09-10T09:53:57.795Z,24.77
2023-09-10T09:56:33.280Z,24.82
2023-09-10T09:59:03.203Z,24.92
2023-09-10T10:01:36.741Z,24.99
2023-09-10T10:04:09.466Z,25.07
2023-09-10T10:06:48.548Z,25.07
2023-09-10T10:09:16.262Z,24.92
2023-09-10T10:11:53.354Z,25.14
2023-09-10T10:14:21.718Z,25.24
2023-09-10T10:16:49.820Z,25.53
2023-09-10T10:19:16.981Z,25.82
2023-09-10T10:21:47.071Z,25.68
2023-09-10T10:24:17.405Z,26.06
2023-09-10T10:26:45.945Z,26.01
2023-09-10T10:29:13.989Z,26.30
2023-09-10T10:31:42.872Z,26.46
2023-09-10T10:34:16.301Z,26.44
2023-09-10T10:37:04.626Z,26.56
2023-09-10T10:39:49.822Z,26.71
2023-09-10T10:42:22.283Z,26.72
2023-09-10T10:44:53.116Z,26.71
2023-09-10T10:47:24.015Z,26.99
2023-09-10T10:49:57.359Z,26.90
2023-09-10T10:52:29.527Z,26.94
2023-09-10T10:54:56.991Z,26.88
2023-09-10T10:57:25.345Z,26.95
2023-09-10T10:59:58.398Z,26.91
2023-09-10T11:02:34.066Z,27.05
2023-09-10T11:05:06.250Z,27.02
2023-09-10T11:07:41.194Z,26.88
2023-09-10T11:10:30.032Z,27.23
2023-09-10T11:13:06.333Z,27.09
2023-09-10T11:16:10.261Z,27.03
2023-09-10T11:18:38.288Z,27.54
2023-09-10T11:21:18.346Z,27.62
2023-09-10T11:23:53.675Z,27.55
2023-09-10T11:26:20.056Z,27.26
2023-09-10T11:28:53.869Z,27.35
2023-09-10T11:31:39.829Z,27.43
2023-09-10T11:34:21.085Z,27.43
2023-09-10T11:37:01.658Z,27.56
2023-09-10T11:39:30.572Z,27.42
2023-09-10T11:42:05.380Z,27.56
2023-09-10T11:44:36.515Z,27.67
2023-09-10T11:47:03.365Z,27.85
2023-09-10T11:49:35.822Z,27.63
2023-09-10T11:52:02.629Z,27.87
2023-09-10T11:54:30.526Z,27.94
2023-09-10T11:57:01.282Z,27.49
2023-09-10T11:59:33.158Z,27.46
2023-09-10T12:02:00.335Z,27.56
2023-09-10T12:04:33.619Z,27.86
2023-09-10T12:07:04.300Z,27.62
2023-09-10T12:09:32.963Z,27.43
2023-09-10T12:12:05.893Z,27.81
2023-09-10T12:14:35.219Z,27.80
2023-09-10T12:17:05.530Z,27.60
2023-09-10T12:19:34.927Z,27.98
2023-09-10T12:22:04.545Z,27.92
2023-09-10T12:24:33.220Z,27.85
2023-09-10T12:27:00.759Z,28.29
2023-09-10T12:29:28.284Z,28.53
2023-09-10T12:31:57.961Z,28.64
2023-09-10T12:34:25.969Z,28.07
2023-09-10T12:36:53.589Z,28.68
2023-09-10T12:39:24.826Z,28.39
2023-09-10T12:42:03.418Z,28.47
2023-09-10T12:44:32.248Z,28.66
2023-09-10T12:47:00.277Z,28.80
2023-09-10T12:49:27.586Z,28.71
2023-09-10T12:51:55.075Z,28.77
2023-09-10T12:54:21.747Z,28.70
2023-09-10T12:56:52.735Z,28.79
2023-09-10T12:59:23.369Z,28.66
2023-09-10T13:01:50.939Z,28.87
2023-09-10T13:04:19.493Z,28.58
2023-09-10T13:06:48.239Z,28.77
2023-09-10T13:09:15.099Z,28.29
2023-09-10T13:11:41.637Z,28.58
2023-09-10T13:14:08.156Z,28.68
2023-09-10T13:16:34.683Z,28.55
2023-09-10T13:19:01.315Z,28.63
2023-09-10T13:21:27.879Z,28.73
2023-09-10T13:23:54.378Z,28.71
2023-09-10T13:26:24.108Z,28.66
2023-09-10T13:28:50.579Z,28.61
2023-09-10T13:31:22.195Z,28.52
2023-09-10T13:33:49.023Z,28.63
2023-09-10T13:36:15.509Z,28.76
2023-09-10T13:38:42.106Z,28.87
2023-09-10T13:41:08.650Z,28.85
2023-09-10T13:43:42.472Z,28.57
2023-09-10T13:46:10.251Z,28.54
2023-09-10T13:48:36.770Z,28.59
2023-09-10T13:51:03.353Z,28.57
2023-09-10T13:53:29.792Z,28.33
2023-09-10T13:55:56.260Z,28.41
2023-09-10T13:58:22.757Z,28.38
2023-09-10T14:00:49.258Z,28.55
2023-09-10T14:03:15.908Z,28.49
2023-09-10T14:05:42.593Z,28.37
2023-09-10T14:08:09.157Z,28.54
2023-09-10T14:10:35.699Z,28.72
2023-09-10T14:13:02.135Z,28.55
2023-09-10T14:15:30.630Z,28.36
2023-09-10T14:17:58.082Z,28.63
2023-09-10T14:20:24.810Z,28.57
2023-09-10T14:22:53.592Z,28.41
2023-09-10T14:25:20.706Z,28.38
2023-09-10T14:27:47.159Z,28.53
2023-09-10T14:30:16.155Z,28.46
2023-09-10T14:32:43.086Z,28.77
2023-09-10T14:35:10.733Z,28.39
2023-09-10T14:37:38.247Z,28.50
2023-09-10T14:40:05.707Z,28.60
2023-09-10T14:42:37.536Z,28.44
2023-09-10T14:45:05.380Z,28.15
2023-09-10T14:47:32.257Z,28.53
2023-09-10T14:50:00.455Z,28.56
2023-09-10T14:52:27.184Z,28.47
2023-09-10T14:54:55.678Z,28.66
2023-09-10T14:57:22.809Z,28.76
2023-09-10T14:59:50.661Z,28.90
2023-09-10T15:02:17.336Z,28.28
2023-09-10T15:04:44.030Z,28.39
2023-09-10T15:07:10.669Z,28.32
2023-09-10T15:09:37.331Z,28.48
2023-09-10T15:12:04.057Z,28.53
2023-09-10T15:14:32.748Z,28.89
2023-09-10T15:16:59.306Z,28.84
2023-09-10T15:19:33.402Z,28.98
2023-09-10T15:22:11.777Z,29.31
2023-09-10T15:24:40.504Z,29.51
2023-09-10T15:27:07.109Z,29.38
2023-09-10T15:29:33.897Z,29.48
2023-09-10T15:32:00.650Z,29.31
2023-09-10T15:34:27.174Z,29.21
2023-09-10T15:36:53.735Z,29.24
2023-09-10T15:39:21.569Z,29.56
2023-09-10T15:41:49.836Z,29.36
2023-09-10T15:44:24.741Z,29.01
2023-09-10T15:46:51.668Z,28.46
2023-09-10T15:49:19.650Z,28.84
2023-09-10T15:51:46.406Z,28.44
2023-09-10T15:54:20.869Z,29.04
2023-09-10T15:56:47.415Z,28.84
2023-09-10T15:59:16.314Z,28.66
2023-09-10T16:14:14.254Z,28.42
2023-09-10T16:16:42.610Z,28.05
2023-09-10T16:19:10.281Z,27.86
2023-09-10T16:21:36.883Z,27.64
2023-09-10T16:24:03.589Z,27.62
2023-09-10T16:26:31.101Z,27.32
2023-09-10T16:28:57.716Z,27.20
2023-09-10T16:31:26.275Z,27.03
2023-09-10T16:33:52.829Z,26.62
2023-09-10T16:36:22.528Z,26.84
2023-09-10T16:38:49.055Z,26.55
2023-09-10T16:41:15.651Z,26.46
2023-09-10T16:43:47.998Z,26.48
2023-09-10T16:46:15.492Z,26.15
2023-09-10T16:48:42.243Z,26.13
2023-09-10T16:51:08.778Z,26.02
2023-09-10T16:53:36.299Z,25.84
2023-09-10T16:56:03.108Z,25.83
2023-09-10T16:58:29.666Z,25.69
2023-09-10T17:00:56.315Z,25.55
2023-09-10T17:03:23.949Z,25.40
2023-09-10T17:05:51.378Z,25.36
2023-09-10T17:08:17.893Z,25.06
2023-09-10T17:10:45.553Z,24.97
2023-09-10T17:13:12.582Z,24.79
2023-09-10T17:15:39.138Z,24.66
2023-09-10T17:18:06.027Z,24.36
2023-09-10T17:20:34.804Z,24.05
2023-09-10T17:23:01.741Z,23.88
2023-09-10T17:25:29.206Z,23.64
2023-09-10T17:27:58.141Z,23.41
2023-09-10T17:30:24.842Z,23.30
2023-09-10T17:32:55.567Z,23.20
2023-09-10T17:35:22.077Z,23.09
2023-09-10T17:37:48.544Z,23.01
2023-09-10T17:40:14.979Z,22.80
2023-09-10T17:42:42.444Z,22.55
2023-09-10T17:45:09.748Z,22.47
2023-09-10T17:47:37.808Z,22.51
2023-09-10T17:50:07.771Z,22.47
2023-09-10T17:52:35.956Z,22.49
2023-09-10T17:55:06.805Z,22.30
2023-09-10T17:57:34.433Z,22.09
2023-09-10T18:00:01.002Z,21.79
2023-09-10T18:02:28.867Z,21.66
2023-09-10T18:04:55.461Z,21.57
2023-09-10T18:07:22.570Z,21.65
2023-09-10T18:09:51.153Z,21.51
2023-09-10T18:12:19.106Z,21.70
2023-09-10T18:14:45.627Z,21.45
2023-09-10T18:17:13.764Z,21.72
2023-09-10T18:19:40.473Z,21.45
2023-09-10T18:22:06.961Z,21.45
2023-09-10T18:24:33.383Z,21.37
2023-09-10T18:27:00.854Z,21.16
2023-09-10T18:29:28.640Z,21.03
2023-09-10T18:31:55.155Z,21.06
2023-09-10T18:34:21.823Z,20.91
2023-09-10T18:36:48.500Z,20.73
2023-09-10T18:39:15.002Z,20.63
2023-09-10T18:41:41.613Z,20.51
2023-09-10T18:44:08.266Z,20.61
2023-09-10T18:46:37.178Z,20.92
2023-09-10T18:49:03.636Z,20.65
2023-09-10T18:51:30.088Z,20.53
2023-09-10T18:53:56.686Z,20.52
2023-09-10T18:56:23.118Z,20.34
2023-09-10T18:58:49.596Z,20.31
2023-09-10T19:01:17.295Z,20.19
2023-09-10T19:03:44.192Z,20.06
2023-09-10T19:06:10.882Z,20.04
2023-09-10T19:08:37.372Z,19.65
2023-09-10T19:11:03.905Z,20.10
2023-09-10T19:13:30.610Z,20.06
2023-09-10T19:15:57.155Z,19.82
2023-09-10T19:18:23.760Z,19.61
2023-09-10T19:20:50.686Z,19.75
2023-09-10T19:23:17.157Z,19.36
2023-09-10T19:25:43.940Z,19.54
2023-09-10T19:28:10.675Z,19.45
2023-09-10T19:30:38.014Z,19.47
2023-09-10T19:33:05.040Z,19.44
2023-09-10T19:35:32.815Z,19.32
2023-09-10T19:38:00.437Z,19.32
2023-09-10T19:40:26.932Z,19.19
2023-09-10T19:42:53.475Z,19.15
2023-09-10T19:45:20.016Z,18.79
2023-09-10T19:47:48.243Z,18.97
2023-09-10T19:50:16.979Z,18.77
2023-09-10T19:52:46.261Z,18.70
2023-09-10T19:55:12.784Z,18.72
2023-09-10T19:57:39.628Z,18.70
2023-09-10T20:00:07.801Z,18.60
2023-09-10T20:02:34.361Z,18.59
2023-09-10T20:05:02.027Z,18.44
2023-09-10T20:07:29.240Z,18.22
2023-09-10T20:09:59.439Z,18.48
2023-09-10T20:12:26.057Z,18.38
2023-09-10T20:14:52.710Z,18.41
2023-09-10T20:17:19.206Z,18.47
2023-09-10T20:38:40.307Z,17.90
2023-09-10T20:41:17.312Z,17.79
2023-09-10T20:43:47.786Z,17.86
2023-09-10T20:46:17.061Z,17.77
2023-09-10T20:48:44.717Z,17.65
2023-09-10T20:51:11.492Z,17.70
2023-09-10T21:44:09.738Z,17.00
2023-09-10T21:46:36.234Z,16.98
2023-09-10T21:49:02.750Z,16.87
